sensor_id;sensor_type;location;lat;lon;timestamp;temperature;humidity
7704;DHT22;3894;49.700;10.770;2023-07-08T00:00:11;19.10;89.90
7704;DHT22;3894;49.700;10.770;2023-07-08T00:02:36;19.20;89.50
7704;DHT22;3894;49.700;10.770;2023-07-08T00:05:02;19.20;89.50
7704;DHT22;3894;49.700;10.770;2023-07-08T00:07:28;19.20;89.50
7704;DHT22;3894;49.700;10.770;2023-07-08T00:09:53;19.10;89.10
7704;DHT22;3894;49.700;10.770;2023-07-08T00:12:19;19.10;89.10
7704;DHT22;3894;49.700;10.770;2023-07-08T00:14:44;19.10;88.80
7704;DHT22;3894;49.700;10.770;2023-07-08T00:17:11;19.00;89.60
7704;DHT22;3894;49.700;10.770;2023-07-08T00:19:38;18.90;90.30
7704;DHT22;3894;49.700;10.770;2023-07-08T00:22:12;18.80;90.80
7704;DHT22;3894;49.700;10.770;2023-07-08T00:24:41;18.60;91.10
7704;DHT22;3894;49.700;10.770;2023-07-08T00:27:10;18.50;91.60
7704;DHT22;3894;49.700;10.770;2023-07-08T00:29:37;18.50;91.60
7704;DHT22;3894;49.700;10.770;2023-07-08T00:32:12;18.60;91.10
7704;DHT22;3894;49.700;10.770;2023-07-08T00:34:38;18.60;91.40
7704;DHT22;3894;49.700;10.770;2023-07-08T00:37:03;18.60;91.30
7704;DHT22;3894;49.700;10.770;2023-07-08T00:39:33;18.60;90.90
7704;DHT22;3894;49.700;10.770;2023-07-08T00:42:00;18.60;90.70
7704;DHT22;3894;49.700;10.770;2023-07-08T00:44:27;18.50;90.80
7704;DHT22;3894;49.700;10.770;2023-07-08T00:47:04;18.50;91.40
7704;DHT22;3894;49.700;10.770;2023-07-08T00:49:46;18.40;91.50
7704;DHT22;3894;49.700;10.770;2023-07-08T00:52:26;18.30;92.10
7704;DHT22;3894;49.700;10.770;2023-07-08T00:54:53;18.20;91.90
7704;DHT22;3894;49.700;10.770;2023-07-08T00:57:20;18.20;91.70
7704;DHT22;3894;49.700;10.770;2023-07-08T00:59:56;18.20;91.60
7704;DHT22;3894;49.700;10.770;2023-07-08T01:02:25;18.20;91.40
7704;DHT22;3894;49.700;10.770;2023-07-08T01:05:08;18.10;92.20
7704;DHT22;3894;49.700;10.770;2023-07-08T01:07:36;18.00;92.90
7704;DHT22;3894;49.700;10.770;2023-07-08T01:10:07;17.80;93.40
7704;DHT22;3894;49.700;10.770;2023-07-08T01:12:42;17.80;93.80
7704;DHT22;3894;49.700;10.770;2023-07-08T01:15:09;17.70;94.00
7704;DHT22;3894;49.700;10.770;2023-07-08T01:17:36;17.70;94.30
7704;DHT22;3894;49.700;10.770;2023-07-08T01:20:04;17.70;94.70
7704;DHT22;3894;49.700;10.770;2023-07-08T01:22:37;17.70;94.60
7704;DHT22;3894;49.700;10.770;2023-07-08T01:25:03;17.80;94.00
7704;DHT22;3894;49.700;10.770;2023-07-08T01:27:30;17.80;94.00
7704;DHT22;3894;49.700;10.770;2023-07-08T01:29:57;17.80;93.90
7704;DHT22;3894;49.700;10.770;2023-07-08T01:32:23;17.80;94.00
7704;DHT22;3894;49.700;10.770;2023-07-08T01:34:50;17.80;93.80
7704;DHT22;3894;49.700;10.770;2023-07-08T01:39:55;17.80;94.00
7704;DHT22;3894;49.700;10.770;2023-07-08T01:42:20;17.80;94.10
7704;DHT22;3894;49.700;10.770;2023-07-08T01:44:47;17.70;94.10
7704;DHT22;3894;49.700;10.770;2023-07-08T01:47:19;17.70;94.10
7704;DHT22;3894;49.700;10.770;2023-07-08T01:49:46;17.70;94.10
7704;DHT22;3894;49.700;10.770;2023-07-08T01:52:14;17.70;94.20
7704;DHT22;3894;49.700;10.770;2023-07-08T01:54:40;17.70;94.30
7704;DHT22;3894;49.700;10.770;2023-07-08T01:57:07;17.70;94.30
7704;DHT22;3894;49.700;10.770;2023-07-08T01:59:33;17.60;94.30
7704;DHT22;3894;49.700;10.770;2023-07-08T02:01:58;17.60;94.20
7704;DHT22;3894;49.700;10.770;2023-07-08T02:04:25;17.60;94.40
7704;DHT22;3894;49.700;10.770;2023-07-08T02:06:56;17.50;94.90
7704;DHT22;3894;49.700;10.770;2023-07-08T02:09:22;17.50;95.20
7704;DHT22;3894;49.700;10.770;2023-07-08T02:11:48;17.40;95.50
7704;DHT22;3894;49.700;10.770;2023-07-08T02:14:14;17.30;95.70
7704;DHT22;3894;49.700;10.770;2023-07-08T02:16:39;17.30;96.10
7704;DHT22;3894;49.700;10.770;2023-07-08T02:19:05;17.30;96.30
7704;DHT22;3894;49.700;10.770;2023-07-08T02:21:30;17.30;95.90
7704;DHT22;3894;49.700;10.770;2023-07-08T02:23:57;17.30;95.80
7704;DHT22;3894;49.700;10.770;2023-07-08T02:26:23;17.20;95.60
7704;DHT22;3894;49.700;10.770;2023-07-08T02:28:48;17.20;95.70
7704;DHT22;3894;49.700;10.770;2023-07-08T02:31:14;17.30;95.60
7704;DHT22;3894;49.700;10.770;2023-07-08T02:33:40;17.30;95.80
7704;DHT22;3894;49.700;10.770;2023-07-08T02:36:06;17.20;96.00
7704;DHT22;3894;49.700;10.770;2023-07-08T02:38:31;17.20;96.20
7704;DHT22;3894;49.700;10.770;2023-07-08T02:40:57;17.20;96.30
7704;DHT22;3894;49.700;10.770;2023-07-08T02:43:23;17.20;96.20
7704;DHT22;3894;49.700;10.770;2023-07-08T02:45:51;17.10;96.50
7704;DHT22;3894;49.700;10.770;2023-07-08T02:48:18;17.10;96.80
7704;DHT22;3894;49.700;10.770;2023-07-08T02:50:44;17.00;96.90
7704;DHT22;3894;49.700;10.770;2023-07-08T02:53:09;17.10;97.10
7704;DHT22;3894;49.700;10.770;2023-07-08T02:55:35;17.00;97.20
7704;DHT22;3894;49.700;10.770;2023-07-08T02:58:00;17.10;97.10
7704;DHT22;3894;49.700;10.770;2023-07-08T03:00:26;17.00;97.30
7704;DHT22;3894;49.700;10.770;2023-07-08T03:02:51;16.90;97.40
7704;DHT22;3894;49.700;10.770;2023-07-08T03:05:17;16.80;97.60
7704;DHT22;3894;49.700;10.770;2023-07-08T03:07:43;16.70;97.70
7704;DHT22;3894;49.700;10.770;2023-07-08T03:10:09;16.70;98.00
7704;DHT22;3894;49.700;10.770;2023-07-08T03:12:34;16.70;98.10
7704;DHT22;3894;49.700;10.770;2023-07-08T03:15:00;16.60;98.30
7704;DHT22;3894;49.700;10.770;2023-07-08T03:17:26;16.60;98.30
7704;DHT22;3894;49.700;10.770;2023-07-08T03:19:52;16.60;98.40
7704;DHT22;3894;49.700;10.770;2023-07-08T03:22:17;16.60;98.70
7704;DHT22;3894;49.700;10.770;2023-07-08T03:24:43;16.70;98.60
7704;DHT22;3894;49.700;10.770;2023-07-08T03:27:14;16.70;98.80
7704;DHT22;3894;49.700;10.770;2023-07-08T03:29:41;16.60;98.30
7704;DHT22;3894;49.700;10.770;2023-07-08T03:32:10;16.40;98.50
7704;DHT22;3894;49.700;10.770;2023-07-08T03:34:36;16.30;98.80
7704;DHT22;3894;49.700;10.770;2023-07-08T03:37:02;16.40;99.10
7704;DHT22;3894;49.700;10.770;2023-07-08T03:39:28;16.40;99.10
7704;DHT22;3894;49.700;10.770;2023-07-08T03:41:54;16.50;99.10
7704;DHT22;3894;49.700;10.770;2023-07-08T03:44:19;16.60;99.10
7704;DHT22;3894;49.700;10.770;2023-07-08T03:46:47;16.60;99.20
7704;DHT22;3894;49.700;10.770;2023-07-08T03:49:14;16.60;99.20
7704;DHT22;3894;49.700;10.770;2023-07-08T03:51:41;16.60;99.30
7704;DHT22;3894;49.700;10.770;2023-07-08T03:54:10;16.50;99.50
7704;DHT22;3894;49.700;10.770;2023-07-08T03:56:36;16.50;99.60
7704;DHT22;3894;49.700;10.770;2023-07-08T03:59:02;16.50;99.80
7704;DHT22;3894;49.700;10.770;2023-07-08T04:01:27;16.50;99.80
7704;DHT22;3894;49.700;10.770;2023-07-08T04:03:56;16.40;99.90
7704;DHT22;3894;49.700;10.770;2023-07-08T04:06:23;16.50;99.90
7704;DHT22;3894;49.700;10.770;2023-07-08T04:08:50;16.50;99.90
7704;DHT22;3894;49.700;10.770;2023-07-08T04:11:18;16.50;99.90
7704;DHT22;3894;49.700;10.770;2023-07-08T04:13:44;16.50;99.90
7704;DHT22;3894;49.700;10.770;2023-07-08T04:16:58;16.60;99.90
7704;DHT22;3894;49.700;10.770;2023-07-08T04:19:08;16.60;99.90
7704;DHT22;3894;49.700;10.770;2023-07-08T04:21:40;16.60;99.90
7704;DHT22;3894;49.700;10.770;2023-07-08T04:24:06;16.60;99.90
7704;DHT22;3894;49.700;10.770;2023-07-08T04:26:32;16.60;99.90
7704;DHT22;3894;49.700;10.770;2023-07-08T04:29:01;16.60;99.90
7704;DHT22;3894;49.700;10.770;2023-07-08T04:31:27;16.60;99.90
7704;DHT22;3894;49.700;10.770;2023-07-08T04:33:52;16.60;99.90
7704;DHT22;3894;49.700;10.770;2023-07-08T04:36:18;16.60;99.90
7704;DHT22;3894;49.700;10.770;2023-07-08T04:38:47;16.60;99.90
7704;DHT22;3894;49.700;10.770;2023-07-08T04:41:12;16.60;99.90
7704;DHT22;3894;49.700;10.770;2023-07-08T04:43:38;16.70;99.90
7704;DHT22;3894;49.700;10.770;2023-07-08T04:46:05;16.70;99.90
7704;DHT22;3894;49.700;10.770;2023-07-08T04:48:34;16.80;99.90
7704;DHT22;3894;49.700;10.770;2023-07-08T04:50:59;16.80;99.90
7704;DHT22;3894;49.700;10.770;2023-07-08T04:53:25;16.90;99.90
7704;DHT22;3894;49.700;10.770;2023-07-08T04:55:53;16.90;99.90
7704;DHT22;3894;49.700;10.770;2023-07-08T04:58:21;17.00;99.90
7704;DHT22;3894;49.700;10.770;2023-07-08T05:00:47;17.00;99.90
7704;DHT22;3894;49.700;10.770;2023-07-08T05:03:13;17.10;99.90
7704;DHT22;3894;49.700;10.770;2023-07-08T05:05:38;17.20;99.90
7704;DHT22;3894;49.700;10.770;2023-07-08T05:08:04;17.30;99.90
7704;DHT22;3894;49.700;10.770;2023-07-08T05:10:30;17.60;99.90
7704;DHT22;3894;49.700;10.770;2023-07-08T05:12:55;18.20;99.90
7704;DHT22;3894;49.700;10.770;2023-07-08T05:15:21;18.60;99.80
7704;DHT22;3894;49.700;10.770;2023-07-08T05:17:47;18.70;99.60
7704;DHT22;3894;49.700;10.770;2023-07-08T05:20:14;18.80;99.90
7704;DHT22;3894;49.700;10.770;2023-07-08T05:22:40;19.00;99.50
7704;DHT22;3894;49.700;10.770;2023-07-08T05:25:06;19.20;99.30
7704;DHT22;3894;49.700;10.770;2023-07-08T05:27:32;19.40;98.80
7704;DHT22;3894;49.700;10.770;2023-07-08T05:30:05;19.60;98.50
7704;DHT22;3894;49.700;10.770;2023-07-08T05:32:31;19.80;98.30
7704;DHT22;3894;49.700;10.770;2023-07-08T05:34:57;20.00;98.30
7704;DHT22;3894;49.700;10.770;2023-07-08T05:37:23;20.00;98.00
7704;DHT22;3894;49.700;10.770;2023-07-08T05:39:51;20.00;97.90
7704;DHT22;3894;49.700;10.770;2023-07-08T05:42:19;20.00;97.90
7704;DHT22;3894;49.700;10.770;2023-07-08T05:44:44;20.10;98.10
7704;DHT22;3894;49.700;10.770;2023-07-08T05:47:10;20.20;97.90
7704;DHT22;3894;49.700;10.770;2023-07-08T05:49:35;20.30;97.70
7704;DHT22;3894;49.700;10.770;2023-07-08T05:52:02;20.40;97.90
7704;DHT22;3894;49.700;10.770;2023-07-08T05:54:31;20.50;97.60
7704;DHT22;3894;49.700;10.770;2023-07-08T05:56:57;20.70;97.60
7704;DHT22;3894;49.700;10.770;2023-07-08T05:59:22;21.00;96.90
7704;DHT22;3894;49.700;10.770;2023-07-08T06:01:48;21.30;96.90
7704;DHT22;3894;49.700;10.770;2023-07-08T06:04:13;21.50;97.10
7704;DHT22;3894;49.700;10.770;2023-07-08T06:06:39;21.60;96.90
7704;DHT22;3894;49.700;10.770;2023-07-08T06:09:04;21.70;96.80
7704;DHT22;3894;49.700;10.770;2023-07-08T06:11:30;21.60;96.80
7704;DHT22;3894;49.700;10.770;2023-07-08T06:13:56;21.40;97.20
7704;DHT22;3894;49.700;10.770;2023-07-08T06:16:22;21.60;97.50
7704;DHT22;3894;49.700;10.770;2023-07-08T06:18:47;21.90;97.00
7704;DHT22;3894;49.700;10.770;2023-07-08T06:21:13;22.10;96.90
7704;DHT22;3894;49.700;10.770;2023-07-08T06:23:38;22.40;96.50
7704;DHT22;3894;49.700;10.770;2023-07-08T06:26:04;22.50;95.90
7704;DHT22;3894;49.700;10.770;2023-07-08T06:28:29;22.60;95.40
7704;DHT22;3894;49.700;10.770;2023-07-08T06:30:55;22.70;94.50
7704;DHT22;3894;49.700;10.770;2023-07-08T06:33:20;22.80;93.90
7704;DHT22;3894;49.700;10.770;2023-07-08T06:35:46;22.90;93.50
7704;DHT22;3894;49.700;10.770;2023-07-08T06:38:13;23.10;93.30
7704;DHT22;3894;49.700;10.770;2023-07-08T06:40:38;23.20;92.80
7704;DHT22;3894;49.700;10.770;2023-07-08T06:43:04;23.20;92.50
7704;DHT22;3894;49.700;10.770;2023-07-08T06:45:29;23.30;92.00
7704;DHT22;3894;49.700;10.770;2023-07-08T06:47:55;23.40;91.90
7704;DHT22;3894;49.700;10.770;2023-07-08T06:50:20;23.50;91.70
7704;DHT22;3894;49.700;10.770;2023-07-08T06:52:46;23.70;91.30
7704;DHT22;3894;49.700;10.770;2023-07-08T06:55:11;23.80;91.30
7704;DHT22;3894;49.700;10.770;2023-07-08T06:57:38;24.00;91.20
7704;DHT22;3894;49.700;10.770;2023-07-08T07:00:08;24.10;90.80
7704;DHT22;3894;49.700;10.770;2023-07-08T07:02:34;24.20;90.60
7704;DHT22;3894;49.700;10.770;2023-07-08T07:05:01;24.40;90.70
7704;DHT22;3894;49.700;10.770;2023-07-08T07:07:26;24.50;90.50
7704;DHT22;3894;49.700;10.770;2023-07-08T07:09:53;24.70;90.50
7704;DHT22;3894;49.700;10.770;2023-07-08T07:12:20;24.80;90.10
7704;DHT22;3894;49.700;10.770;2023-07-08T07:14:45;25.00;90.00
7704;DHT22;3894;49.700;10.770;2023-07-08T07:17:11;25.20;90.00
7704;DHT22;3894;49.700;10.770;2023-07-08T07:19:36;25.50;89.40
7704;DHT22;3894;49.700;10.770;2023-07-08T07:22:02;25.60;88.70
7704;DHT22;3894;49.700;10.770;2023-07-08T07:24:27;25.60;87.40
7704;DHT22;3894;49.700;10.770;2023-07-08T07:26:53;25.70;87.70
7704;DHT22;3894;49.700;10.770;2023-07-08T07:29:22;25.70;87.00
7704;DHT22;3894;49.700;10.770;2023-07-08T07:31:48;25.70;86.90
7704;DHT22;3894;49.700;10.770;2023-07-08T07:34:13;25.70;86.80
7704;DHT22;3894;49.700;10.770;2023-07-08T07:36:39;25.90;86.60
7704;DHT22;3894;49.700;10.770;2023-07-08T07:39:05;26.00;86.40
7704;DHT22;3894;49.700;10.770;2023-07-08T07:41:31;26.10;86.60
7704;DHT22;3894;49.700;10.770;2023-07-08T07:43:57;26.30;85.70
7704;DHT22;3894;49.700;10.770;2023-07-08T07:46:22;26.40;84.20
7704;DHT22;3894;49.700;10.770;2023-07-08T07:48:48;26.50;83.70
7704;DHT22;3894;49.700;10.770;2023-07-08T07:51:14;26.50;82.80
7704;DHT22;3894;49.700;10.770;2023-07-08T07:53:39;26.60;82.90
7704;DHT22;3894;49.700;10.770;2023-07-08T07:56:05;26.70;82.70
7704;DHT22;3894;49.700;10.770;2023-07-08T07:58:31;26.90;82.60
7704;DHT22;3894;49.700;10.770;2023-07-08T08:00:59;27.10;81.90
7704;DHT22;3894;49.700;10.770;2023-07-08T08:03:25;27.20;81.60
7704;DHT22;3894;49.700;10.770;2023-07-08T08:05:50;27.20;80.90
7704;DHT22;3894;49.700;10.770;2023-07-08T08:08:16;27.10;80.80
7704;DHT22;3894;49.700;10.770;2023-07-08T08:10:43;27.20;80.80
7704;DHT22;3894;49.700;10.770;2023-07-08T08:13:09;27.30;80.20
7704;DHT22;3894;49.700;10.770;2023-07-08T08:15:35;27.40;80.40
7704;DHT22;3894;49.700;10.770;2023-07-08T08:18:01;27.50;79.90
7704;DHT22;3894;49.700;10.770;2023-07-08T08:20:28;27.60;79.80
7704;DHT22;3894;49.700;10.770;2023-07-08T08:22:54;27.70;79.40
7704;DHT22;3894;49.700;10.770;2023-07-08T08:25:22;28.00;79.20
7704;DHT22;3894;49.700;10.770;2023-07-08T08:27:48;28.20;79.30
7704;DHT22;3894;49.700;10.770;2023-07-08T08:30:14;28.30;78.50
7704;DHT22;3894;49.700;10.770;2023-07-08T08:32:39;28.40;77.50
7704;DHT22;3894;49.700;10.770;2023-07-08T08:35:05;28.30;77.50
7704;DHT22;3894;49.700;10.770;2023-07-08T08:37:31;28.40;78.00
7704;DHT22;3894;49.700;10.770;2023-07-08T08:39:56;28.50;77.00
7704;DHT22;3894;49.700;10.770;2023-07-08T08:45:00;28.50;77.20
7704;DHT22;3894;49.700;10.770;2023-07-08T08:47:37;28.80;76.20
7704;DHT22;3894;49.700;10.770;2023-07-08T08:50:29;28.90;75.60
7704;DHT22;3894;49.700;10.770;2023-07-08T08:52:56;28.90;74.80
7704;DHT22;3894;49.700;10.770;2023-07-08T08:55:23;29.00;75.90
7704;DHT22;3894;49.700;10.770;2023-07-08T09:00:40;29.20;73.80
7704;DHT22;3894;49.700;10.770;2023-07-08T09:03:16;29.30;73.00
7704;DHT22;3894;49.700;10.770;2023-07-08T09:05:45;29.40;72.40
7704;DHT22;3894;49.700;10.770;2023-07-08T09:10:44;29.50;71.40
7704;DHT22;3894;49.700;10.770;2023-07-08T09:13:21;29.50;70.20
7704;DHT22;3894;49.700;10.770;2023-07-08T09:15:48;29.50;69.70
7704;DHT22;3894;49.700;10.770;2023-07-08T09:18:27;29.60;68.80
7704;DHT22;3894;49.700;10.770;2023-07-08T09:20:55;29.60;68.30
7704;DHT22;3894;49.700;10.770;2023-07-08T09:23:25;29.70;67.50
7704;DHT22;3894;49.700;10.770;2023-07-08T09:26:05;29.70;66.70
7704;DHT22;3894;49.700;10.770;2023-07-08T09:28:42;29.70;66.70
7704;DHT22;3894;49.700;10.770;2023-07-08T09:31:21;29.70;67.50
7704;DHT22;3894;49.700;10.770;2023-07-08T09:33:46;29.90;67.00
7704;DHT22;3894;49.700;10.770;2023-07-08T09:36:23;30.10;65.00
7704;DHT22;3894;49.700;10.770;2023-07-08T09:38:50;30.10;62.90
7704;DHT22;3894;49.700;10.770;2023-07-08T09:41:35;30.20;63.50
7704;DHT22;3894;49.700;10.770;2023-07-08T09:44:24;30.30;61.30
7704;DHT22;3894;49.700;10.770;2023-07-08T09:46:55;30.20;61.30
7704;DHT22;3894;49.700;10.770;2023-07-08T09:49:27;30.30;62.20
7704;DHT22;3894;49.700;10.770;2023-07-08T09:51:53;30.40;62.00
7704;DHT22;3894;49.700;10.770;2023-07-08T09:54:21;30.70;61.10
7704;DHT22;3894;49.700;10.770;2023-07-08T09:57:00;30.80;61.80
7704;DHT22;3894;49.700;10.770;2023-07-08T09:59:32;30.90;61.60
7704;DHT22;3894;49.700;10.770;2023-07-08T10:02:02;31.00;61.30
7704;DHT22;3894;49.700;10.770;2023-07-08T10:04:29;31.10;61.40
7704;DHT22;3894;49.700;10.770;2023-07-08T10:06:56;31.30;61.30
7704;DHT22;3894;49.700;10.770;2023-07-08T10:09:24;31.30;60.00
7704;DHT22;3894;49.700;10.770;2023-07-08T10:12:00;31.20;59.20
7704;DHT22;3894;49.700;10.770;2023-07-08T10:14:33;31.30;59.30
7704;DHT22;3894;49.700;10.770;2023-07-08T10:17:00;31.30;58.90
7704;DHT22;3894;49.700;10.770;2023-07-08T10:19:25;31.30;58.60
7704;DHT22;3894;49.700;10.770;2023-07-08T10:24:38;31.30;57.70
7704;DHT22;3894;49.700;10.770;2023-07-08T10:29:54;31.40;57.30
7704;DHT22;3894;49.700;10.770;2023-07-08T10:35:36;31.20;55.50
7704;DHT22;3894;49.700;10.770;2023-07-08T10:38:38;31.30;57.60
7704;DHT22;3894;49.700;10.770;2023-07-08T10:56:07;32.50;55.60
7704;DHT22;3894;49.700;10.770;2023-07-08T10:58:25;32.80;54.30
7704;DHT22;3894;49.700;10.770;2023-07-08T11:01:17;32.70;53.00
7704;DHT22;3894;49.700;10.770;2023-07-08T11:06:43;32.70;53.50
7704;DHT22;3894;49.700;10.770;2023-07-08T11:09:13;32.80;53.20
7704;DHT22;3894;49.700;10.770;2023-07-08T11:12:00;32.90;51.80
7704;DHT22;3894;49.700;10.770;2023-07-08T11:14:51;33.00;53.20
7704;DHT22;3894;49.700;10.770;2023-07-08T11:17:48;33.20;52.20
7704;DHT22;3894;49.700;10.770;2023-07-08T11:22:54;32.80;50.90
7704;DHT22;3894;49.700;10.770;2023-07-08T11:25:24;33.00;51.30
7704;DHT22;3894;49.700;10.770;2023-07-08T11:27:52;33.10;49.80
7704;DHT22;3894;49.700;10.770;2023-07-08T11:30:22;32.90;49.40
7704;DHT22;3894;49.700;10.770;2023-07-08T11:33:04;33.10;50.80
7704;DHT22;3894;49.700;10.770;2023-07-08T11:35:46;33.30;50.90
7704;DHT22;3894;49.700;10.770;2023-07-08T11:38:16;33.50;50.90
7704;DHT22;3894;49.700;10.770;2023-07-08T11:41:02;33.30;49.60
7704;DHT22;3894;49.700;10.770;2023-07-08T11:43:49;33.40;51.00
7704;DHT22;3894;49.700;10.770;2023-07-08T11:46:27;33.60;51.20
7704;DHT22;3894;49.700;10.770;2023-07-08T11:49:02;33.90;50.20
7704;DHT22;3894;49.700;10.770;2023-07-08T11:51:34;34.00;51.10
7704;DHT22;3894;49.700;10.770;2023-07-08T11:59:18;34.00;49.80
7704;DHT22;3894;49.700;10.770;2023-07-08T12:05:01;34.00;49.80
7704;DHT22;3894;49.700;10.770;2023-07-08T12:07:33;34.20;50.90
7704;DHT22;3894;49.700;10.770;2023-07-08T12:10:23;34.30;52.00
7704;DHT22;3894;49.700;10.770;2023-07-08T12:12:51;34.40;50.20
7704;DHT22;3894;49.700;10.770;2023-07-08T12:15:27;34.40;50.70
7704;DHT22;3894;49.700;10.770;2023-07-08T12:18:05;34.40;51.20
7704;DHT22;3894;49.700;10.770;2023-07-08T12:20:35;34.40;50.30
7704;DHT22;3894;49.700;10.770;2023-07-08T12:23:02;34.40;50.40
7704;DHT22;3894;49.700;10.770;2023-07-08T12:25:32;34.30;50.70
7704;DHT22;3894;49.700;10.770;2023-07-08T12:28:00;34.40;50.80
7704;DHT22;3894;49.700;10.770;2023-07-08T12:30:28;34.60;50.60
7704;DHT22;3894;49.700;10.770;2023-07-08T12:32:54;34.30;47.20
7704;DHT22;3894;49.700;10.770;2023-07-08T12:35:30;33.80;49.20
7704;DHT22;3894;49.700;10.770;2023-07-08T12:38:03;34.00;50.10
7704;DHT22;3894;49.700;10.770;2023-07-08T12:40:30;34.20;48.90
7704;DHT22;3894;49.700;10.770;2023-07-08T12:42:57;34.30;49.60
7704;DHT22;3894;49.700;10.770;2023-07-08T12:45:26;34.50;49.60
7704;DHT22;3894;49.700;10.770;2023-07-08T12:47:51;34.50;49.50
7704;DHT22;3894;49.700;10.770;2023-07-08T12:50:17;34.60;49.30
7704;DHT22;3894;49.700;10.770;2023-07-08T12:52:44;34.50;49.30
7704;DHT22;3894;49.700;10.770;2023-07-08T12:55:11;34.50;49.10
7704;DHT22;3894;49.700;10.770;2023-07-08T12:57:40;34.60;49.50
7704;DHT22;3894;49.700;10.770;2023-07-08T13:00:38;34.80;49.00
7704;DHT22;3894;49.700;10.770;2023-07-08T13:03:07;34.90;48.60
7704;DHT22;3894;49.700;10.770;2023-07-08T13:05:33;34.90;48.10
7704;DHT22;3894;49.700;10.770;2023-07-08T13:07:59;35.00;49.10
7704;DHT22;3894;49.700;10.770;2023-07-08T13:10:28;35.10;48.80
7704;DHT22;3894;49.700;10.770;2023-07-08T13:12:57;35.10;48.00
7704;DHT22;3894;49.700;10.770;2023-07-08T13:15:43;35.10;48.10
7704;DHT22;3894;49.700;10.770;2023-07-08T13:18:18;35.10;48.00
7704;DHT22;3894;49.700;10.770;2023-07-08T13:20:49;35.10;47.00
7704;DHT22;3894;49.700;10.770;2023-07-08T13:23:15;35.00;47.60
7704;DHT22;3894;49.700;10.770;2023-07-08T13:25:41;35.10;47.50
7704;DHT22;3894;49.700;10.770;2023-07-08T13:28:36;35.10;47.30
7704;DHT22;3894;49.700;10.770;2023-07-08T13:31:22;35.10;47.50
7704;DHT22;3894;49.700;10.770;2023-07-08T13:33:56;34.70;45.00
7704;DHT22;3894;49.700;10.770;2023-07-08T13:36:35;34.20;47.40
7704;DHT22;3894;49.700;10.770;2023-07-08T13:39:15;34.30;47.90
7704;DHT22;3894;49.700;10.770;2023-07-08T13:41:43;34.50;47.30
7704;DHT22;3894;49.700;10.770;2023-07-08T13:44:09;34.30;45.00
7704;DHT22;3894;49.700;10.770;2023-07-08T13:46:52;34.00;45.50
7704;DHT22;3894;49.700;10.770;2023-07-08T13:49:29;34.00;46.80
7704;DHT22;3894;49.700;10.770;2023-07-08T13:54:38;34.30;47.60
7704;DHT22;3894;49.700;10.770;2023-07-08T13:57:10;34.30;47.70
7704;DHT22;3894;49.700;10.770;2023-07-08T13:59:36;34.30;47.40
7704;DHT22;3894;49.700;10.770;2023-07-08T14:02:02;34.30;47.50
7704;DHT22;3894;49.700;10.770;2023-07-08T14:04:35;34.20;47.10
7704;DHT22;3894;49.700;10.770;2023-07-08T14:07:01;34.10;45.00
7704;DHT22;3894;49.700;10.770;2023-07-08T14:09:26;33.70;46.30
7704;DHT22;3894;49.700;10.770;2023-07-08T14:11:52;33.70;47.40
7704;DHT22;3894;49.700;10.770;2023-07-08T14:14:19;33.90;47.90
7704;DHT22;3894;49.700;10.770;2023-07-08T14:16:52;33.90;47.10
7704;DHT22;3894;49.700;10.770;2023-07-08T14:19:28;33.90;47.20
7704;DHT22;3894;49.700;10.770;2023-07-08T14:21:58;33.90;47.60
7704;DHT22;3894;49.700;10.770;2023-07-08T14:24:24;34.00;47.20
7704;DHT22;3894;49.700;10.770;2023-07-08T14:26:50;34.00;47.00
7704;DHT22;3894;49.700;10.770;2023-07-08T14:29:15;34.00;47.40
7704;DHT22;3894;49.700;10.770;2023-07-08T14:31:41;33.90;47.10
7704;DHT22;3894;49.700;10.770;2023-07-08T14:34:11;33.90;47.50
7704;DHT22;3894;49.700;10.770;2023-07-08T14:36:37;33.90;47.10
7704;DHT22;3894;49.700;10.770;2023-07-08T14:39:14;33.80;47.10
7704;DHT22;3894;49.700;10.770;2023-07-08T14:41:40;33.80;47.40
7704;DHT22;3894;49.700;10.770;2023-07-08T14:44:33;33.70;47.60
7704;DHT22;3894;49.700;10.770;2023-07-08T14:47:00;33.60;47.30
7704;DHT22;3894;49.700;10.770;2023-07-08T14:49:27;33.60;46.50
7704;DHT22;3894;49.700;10.770;2023-07-08T14:51:52;33.50;47.30
7704;DHT22;3894;49.700;10.770;2023-07-08T14:54:19;33.60;47.30
7704;DHT22;3894;49.700;10.770;2023-07-08T14:56:46;33.60;47.20
7704;DHT22;3894;49.700;10.770;2023-07-08T14:59:14;33.60;47.00
7704;DHT22;3894;49.700;10.770;2023-07-08T15:01:40;33.50;46.90
7704;DHT22;3894;49.700;10.770;2023-07-08T15:04:11;33.50;47.40
7704;DHT22;3894;49.700;10.770;2023-07-08T15:06:37;33.50;48.00
7704;DHT22;3894;49.700;10.770;2023-07-08T15:09:02;33.60;47.20
7704;DHT22;3894;49.700;10.770;2023-07-08T15:11:28;33.60;47.30
7704;DHT22;3894;49.700;10.770;2023-07-08T15:13:54;33.60;46.60
7704;DHT22;3894;49.700;10.770;2023-07-08T15:16:20;33.50;46.70
7704;DHT22;3894;49.700;10.770;2023-07-08T15:18:45;33.40;45.50
7704;DHT22;3894;49.700;10.770;2023-07-08T15:21:12;33.20;46.00
7704;DHT22;3894;49.700;10.770;2023-07-08T15:23:38;33.20;46.70
7704;DHT22;3894;49.700;10.770;2023-07-08T15:26:05;33.30;46.00
7704;DHT22;3894;49.700;10.770;2023-07-08T15:28:46;33.30;46.70
7704;DHT22;3894;49.700;10.770;2023-07-08T15:31:20;33.40;46.70
7704;DHT22;3894;49.700;10.770;2023-07-08T15:33:50;33.50;46.90
7704;DHT22;3894;49.700;10.770;2023-07-08T15:36:16;33.60;46.60
7704;DHT22;3894;49.700;10.770;2023-07-08T15:38:42;33.60;46.60
7704;DHT22;3894;49.700;10.770;2023-07-08T15:41:24;33.60;46.70
7704;DHT22;3894;49.700;10.770;2023-07-08T15:43:53;33.70;46.70
7704;DHT22;3894;49.700;10.770;2023-07-08T15:46:20;33.80;47.00
7704;DHT22;3894;49.700;10.770;2023-07-08T15:48:46;33.80;47.30
7704;DHT22;3894;49.700;10.770;2023-07-08T15:51:15;33.80;46.80
7704;DHT22;3894;49.700;10.770;2023-07-08T15:53:41;33.80;46.80
7704;DHT22;3894;49.700;10.770;2023-07-08T15:56:11;33.90;47.00
7704;DHT22;3894;49.700;10.770;2023-07-08T15:58:37;33.70;47.10
7704;DHT22;3894;49.700;10.770;2023-07-08T16:01:03;33.40;47.40
7704;DHT22;3894;49.700;10.770;2023-07-08T16:03:30;33.20;47.40
7704;DHT22;3894;49.700;10.770;2023-07-08T16:05:58;33.10;47.50
7704;DHT22;3894;49.700;10.770;2023-07-08T16:08:24;33.20;47.50
7704;DHT22;3894;49.700;10.770;2023-07-08T16:10:53;33.40;47.20
7704;DHT22;3894;49.700;10.770;2023-07-08T16:13:25;33.50;47.30
7704;DHT22;3894;49.700;10.770;2023-07-08T16:15:51;33.70;47.20
7704;DHT22;3894;49.700;10.770;2023-07-08T16:18:17;33.80;47.60
7704;DHT22;3894;49.700;10.770;2023-07-08T16:20:43;33.90;47.50
7704;DHT22;3894;49.700;10.770;2023-07-08T16:23:09;33.80;47.00
7704;DHT22;3894;49.700;10.770;2023-07-08T16:25:41;33.70;47.30
7704;DHT22;3894;49.700;10.770;2023-07-08T16:30:47;33.70;47.00
7704;DHT22;3894;49.700;10.770;2023-07-08T16:33:13;33.80;47.20
7704;DHT22;3894;49.700;10.770;2023-07-08T16:35:39;33.80;47.20
7704;DHT22;3894;49.700;10.770;2023-07-08T16:38:07;33.70;47.00
7704;DHT22;3894;49.700;10.770;2023-07-08T16:40:33;33.70;47.70
7704;DHT22;3894;49.700;10.770;2023-07-08T16:42:59;33.70;47.40
7704;DHT22;3894;49.700;10.770;2023-07-08T16:45:25;33.70;47.30
7704;DHT22;3894;49.700;10.770;2023-07-08T16:47:52;33.70;47.10